sensor_id;sensor_type;location;lat;lon;timestamp;P1;durP1;ratioP1;P2;durP2;ratioP2
66342;SDS011;53144;51.524;5.080;2023-04-30T00:01:35;8.68;;;5.43;;
66342;SDS011;53144;51.524;5.080;2023-04-30T00:06:26;8.10;;;4.75;;
66342;SDS011;53144;51.524;5.080;2023-04-30T00:11:17;6.78;;;4.93;;
66342;SDS011;53144;51.524;5.080;2023-04-30T00:13:42;7.53;;;5.55;;
66342;SDS011;53144;51.524;5.080;2023-04-30T00:16:07;9.50;;;5.85;;
66342;SDS011;53144;51.524;5.080;2023-04-30T00:18:33;9.65;;;6.35;;
66342;SDS011;53144;51.524;5.080;2023-04-30T00:20:58;9.45;;;6.53;;
66342;SDS011;53144;51.524;5.080;2023-04-30T00:23:24;11.95;;;7.35;;
66342;SDS011;53144;51.524;5.080;2023-04-30T00:28:14;11.57;;;7.15;;
66342;SDS011;53144;51.524;5.080;2023-04-30T00:33:05;12.18;;;6.75;;
66342;SDS011;53144;51.524;5.080;2023-04-30T00:35:30;12.60;;;7.85;;
66342;SDS011;53144;51.524;5.080;2023-04-30T00:37:56;16.67;;;8.68;;
66342;SDS011;53144;51.524;5.080;2023-04-30T00:40:21;11.15;;;7.75;;
66342;SDS011;53144;51.524;5.080;2023-04-30T00:42:46;13.55;;;7.60;;
66342;SDS011;53144;51.524;5.080;2023-04-30T00:47:38;11.75;;;7.80;;
66342;SDS011;53144;51.524;5.080;2023-04-30T00:52:28;11.75;;;7.68;;
66342;SDS011;53144;51.524;5.080;2023-04-30T00:54:54;14.13;;;8.35;;
66342;SDS011;53144;51.524;5.080;2023-04-30T00:57:20;11.48;;;8.85;;
66342;SDS011;53144;51.524;5.080;2023-04-30T00:59:46;14.80;;;9.00;;
66342;SDS011;53144;51.524;5.080;2023-04-30T01:02:12;15.15;;;9.95;;
66342;SDS011;53144;51.524;5.080;2023-04-30T01:04:39;16.73;;;9.45;;
66342;SDS011;53144;51.524;5.080;2023-04-30T01:07:04;12.38;;;8.52;;
66342;SDS011;53144;51.524;5.080;2023-04-30T01:09:30;17.80;;;9.27;;
66342;SDS011;53144;51.524;5.080;2023-04-30T01:20:11;12.77;;;8.95;;
66342;SDS011;53144;51.524;5.080;2023-04-30T01:28:17;12.40;;;8.55;;
66342;SDS011;53144;51.524;5.080;2023-04-30T01:30:44;12.90;;;8.45;;
66342;SDS011;53144;51.524;5.080;2023-04-30T01:33:10;15.00;;;9.50;;
66342;SDS011;53144;51.524;5.080;2023-04-30T01:38:19;13.38;;;8.65;;
66342;SDS011;53144;51.524;5.080;2023-04-30T01:40:53;13.32;;;8.48;;
66342;SDS011;53144;51.524;5.080;2023-04-30T01:46:26;10.52;;;8.60;;
66342;SDS011;53144;51.524;5.080;2023-04-30T01:51:41;14.02;;;9.60;;
66342;SDS011;53144;51.524;5.080;2023-04-30T01:54:11;13.73;;;9.35;;
66342;SDS011;53144;51.524;5.080;2023-04-30T01:56:42;16.92;;;9.57;;
66342;SDS011;53144;51.524;5.080;2023-04-30T01:59:13;15.30;;;10.30;;
66342;SDS011;53144;51.524;5.080;2023-04-30T02:01:40;13.85;;;10.02;;
66342;SDS011;53144;51.524;5.080;2023-04-30T02:04:05;16.52;;;10.15;;
66342;SDS011;53144;51.524;5.080;2023-04-30T02:06:31;16.23;;;9.53;;
66342;SDS011;53144;51.524;5.080;2023-04-30T02:08:57;16.00;;;10.80;;
66342;SDS011;53144;51.524;5.080;2023-04-30T02:11:30;13.57;;;9.73;;
66342;SDS011;53144;51.524;5.080;2023-04-30T02:13:55;14.13;;;10.18;;
66342;SDS011;53144;51.524;5.080;2023-04-30T02:16:21;15.73;;;10.52;;
66342;SDS011;53144;51.524;5.080;2023-04-30T02:21:12;16.25;;;9.82;;
66342;SDS011;53144;51.524;5.080;2023-04-30T02:26:03;11.93;;;9.18;;
66342;SDS011;53144;51.524;5.080;2023-04-30T02:28:29;14.50;;;9.68;;
66342;SDS011;53144;51.524;5.080;2023-04-30T02:30:54;15.57;;;9.77;;
66342;SDS011;53144;51.524;5.080;2023-04-30T02:33:20;12.18;;;9.02;;
66342;SDS011;53144;51.524;5.080;2023-04-30T02:35:45;15.35;;;9.85;;
66342;SDS011;53144;51.524;5.080;2023-04-30T02:38:10;15.23;;;10.98;;
66342;SDS011;53144;51.524;5.080;2023-04-30T02:40:36;15.18;;;10.05;;
66342;SDS011;53144;51.524;5.080;2023-04-30T02:45:27;14.70;;;9.77;;
66342;SDS011;53144;51.524;5.080;2023-04-30T02:47:52;14.38;;;9.20;;
66342;SDS011;53144;51.524;5.080;2023-04-30T02:50:17;13.02;;;9.65;;
66342;SDS011;53144;51.524;5.080;2023-04-30T02:52:46;15.93;;;10.38;;
66342;SDS011;53144;51.524;5.080;2023-04-30T02:55:11;13.90;;;9.88;;
66342;SDS011;53144;51.524;5.080;2023-04-30T02:57:37;12.18;;;9.75;;
66342;SDS011;53144;51.524;5.080;2023-04-30T03:00:03;14.02;;;10.27;;
66342;SDS011;53144;51.524;5.080;2023-04-30T03:02:28;15.07;;;10.05;;
66342;SDS011;53144;51.524;5.080;2023-04-30T03:04:54;18.40;;;10.93;;
66342;SDS011;53144;51.524;5.080;2023-04-30T03:07:19;18.48;;;12.25;;
66342;SDS011;53144;51.524;5.080;2023-04-30T03:09:45;15.10;;;10.77;;
66342;SDS011;53144;51.524;5.080;2023-04-30T03:12:10;15.93;;;10.73;;
66342;SDS011;53144;51.524;5.080;2023-04-30T03:14:36;15.80;;;10.55;;
66342;SDS011;53144;51.524;5.080;2023-04-30T03:17:01;19.02;;;10.85;;
66342;SDS011;53144;51.524;5.080;2023-04-30T03:19:27;23.00;;;11.73;;
66342;SDS011;53144;51.524;5.080;2023-04-30T03:21:53;15.50;;;11.43;;
66342;SDS011;53144;51.524;5.080;2023-04-30T03:24:19;17.05;;;10.77;;
66342;SDS011;53144;51.524;5.080;2023-04-30T03:26:45;16.95;;;11.68;;
66342;SDS011;53144;51.524;5.080;2023-04-30T03:29:10;13.82;;;10.85;;
66342;SDS011;53144;51.524;5.080;2023-04-30T03:31:36;15.85;;;10.73;;
66342;SDS011;53144;51.524;5.080;2023-04-30T03:34:01;17.50;;;11.63;;
66342;SDS011;53144;51.524;5.080;2023-04-30T03:36:26;16.90;;;12.03;;
66342;SDS011;53144;51.524;5.080;2023-04-30T03:38:52;18.92;;;11.88;;
66342;SDS011;53144;51.524;5.080;2023-04-30T03:41:17;19.73;;;11.13;;
66342;SDS011;53144;51.524;5.080;2023-04-30T03:43:43;17.92;;;11.70;;
66342;SDS011;53144;51.524;5.080;2023-04-30T03:46:09;15.15;;;11.25;;
66342;SDS011;53144;51.524;5.080;2023-04-30T03:48:34;15.48;;;11.05;;
66342;SDS011;53144;51.524;5.080;2023-04-30T03:51:00;20.30;;;12.88;;
66342;SDS011;53144;51.524;5.080;2023-04-30T03:53:25;19.15;;;12.20;;
66342;SDS011;53144;51.524;5.080;2023-04-30T03:55:51;15.82;;;11.35;;
66342;SDS011;53144;51.524;5.080;2023-04-30T03:58:17;17.85;;;11.65;;
66342;SDS011;53144;51.524;5.080;2023-04-30T04:00:43;19.73;;;11.65;;
66342;SDS011;53144;51.524;5.080;2023-04-30T04:03:10;16.85;;;11.57;;
66342;SDS011;53144;51.524;5.080;2023-04-30T04:05:36;18.73;;;12.25;;
66342;SDS011;53144;51.524;5.080;2023-04-30T04:08:01;20.25;;;11.32;;
66342;SDS011;53144;51.524;5.080;2023-04-30T04:10:27;16.67;;;11.85;;
66342;SDS011;53144;51.524;5.080;2023-04-30T04:12:52;19.48;;;12.18;;
66342;SDS011;53144;51.524;5.080;2023-04-30T04:15:18;16.02;;;11.70;;
66342;SDS011;53144;51.524;5.080;2023-04-30T04:17:43;16.00;;;11.43;;
66342;SDS011;53144;51.524;5.080;2023-04-30T04:20:08;17.73;;;12.20;;
66342;SDS011;53144;51.524;5.080;2023-04-30T04:22:34;20.33;;;12.35;;
66342;SDS011;53144;51.524;5.080;2023-04-30T04:25:00;18.33;;;12.65;;
66342;SDS011;53144;51.524;5.080;2023-04-30T04:27:25;16.20;;;12.13;;
66342;SDS011;53144;51.524;5.080;2023-04-30T04:29:51;16.97;;;11.93;;
66342;SDS011;53144;51.524;5.080;2023-04-30T04:32:16;13.55;;;11.77;;
66342;SDS011;53144;51.524;5.080;2023-04-30T04:34:42;18.65;;;12.68;;
66342;SDS011;53144;51.524;5.080;2023-04-30T04:37:07;17.80;;;12.85;;
66342;SDS011;53144;51.524;5.080;2023-04-30T04:39:33;19.77;;;12.10;;
66342;SDS011;53144;51.524;5.080;2023-04-30T04:42:00;20.02;;;11.80;;
66342;SDS011;53144;51.524;5.080;2023-04-30T04:44:26;16.17;;;11.45;;
66342;SDS011;53144;51.524;5.080;2023-04-30T04:46:51;21.42;;;13.18;;
66342;SDS011;53144;51.524;5.080;2023-04-30T04:49:18;19.95;;;12.63;;
66342;SDS011;53144;51.524;5.080;2023-04-30T04:51:43;17.13;;;11.45;;
66342;SDS011;53144;51.524;5.080;2023-04-30T04:54:08;17.73;;;12.38;;
66342;SDS011;53144;51.524;5.080;2023-04-30T04:56:34;16.30;;;11.77;;
66342;SDS011;53144;51.524;5.080;2023-04-30T04:58:59;21.43;;;12.37;;
66342;SDS011;53144;51.524;5.080;2023-04-30T05:01:25;16.48;;;11.77;;
66342;SDS011;53144;51.524;5.080;2023-04-30T05:03:50;15.82;;;12.20;;
66342;SDS011;53144;51.524;5.080;2023-04-30T05:06:17;15.77;;;12.00;;
66342;SDS011;53144;51.524;5.080;2023-04-30T05:08:43;17.83;;;12.18;;
66342;SDS011;53144;51.524;5.080;2023-04-30T05:11:08;16.77;;;12.60;;
66342;SDS011;53144;51.524;5.080;2023-04-30T05:15:59;15.00;;;10.95;;
66342;SDS011;53144;51.524;5.080;2023-04-30T05:18:25;14.30;;;10.57;;
66342;SDS011;53144;51.524;5.080;2023-04-30T05:20:50;16.55;;;11.93;;
66342;SDS011;53144;51.524;5.080;2023-04-30T05:25:41;16.92;;;12.38;;
66342;SDS011;53144;51.524;5.080;2023-04-30T05:28:07;16.50;;;11.63;;
66342;SDS011;53144;51.524;5.080;2023-04-30T05:32:58;15.57;;;11.93;;
66342;SDS011;53144;51.524;5.080;2023-04-30T05:35:23;16.98;;;12.45;;
66342;SDS011;53144;51.524;5.080;2023-04-30T05:37:49;16.38;;;11.90;;
66342;SDS011;53144;51.524;5.080;2023-04-30T05:40:15;16.10;;;11.43;;
66342;SDS011;53144;51.524;5.080;2023-04-30T05:42:41;16.92;;;12.68;;
66342;SDS011;53144;51.524;5.080;2023-04-30T05:45:11;17.98;;;12.27;;
66342;SDS011;53144;51.524;5.080;2023-04-30T05:47:38;16.88;;;12.48;;
66342;SDS011;53144;51.524;5.080;2023-04-30T05:50:07;15.88;;;11.77;;
66342;SDS011;53144;51.524;5.080;2023-04-30T05:52:33;17.02;;;12.10;;
66342;SDS011;53144;51.524;5.080;2023-04-30T05:54:59;17.30;;;12.00;;
66342;SDS011;53144;51.524;5.080;2023-04-30T05:57:24;16.25;;;12.18;;
66342;SDS011;53144;51.524;5.080;2023-04-30T06:02:15;15.40;;;11.27;;
66342;SDS011;53144;51.524;5.080;2023-04-30T06:04:40;14.15;;;11.00;;
66342;SDS011;53144;51.524;5.080;2023-04-30T06:07:06;13.10;;;10.90;;
66342;SDS011;53144;51.524;5.080;2023-04-30T06:09:32;13.07;;;10.25;;
66342;SDS011;53144;51.524;5.080;2023-04-30T06:11:57;18.73;;;11.32;;
66342;SDS011;53144;51.524;5.080;2023-04-30T06:16:48;13.40;;;10.90;;
66342;SDS011;53144;51.524;5.080;2023-04-30T06:19:14;16.77;;;10.63;;
66342;SDS011;53144;51.524;5.080;2023-04-30T06:24:07;12.85;;;9.57;;
66342;SDS011;53144;51.524;5.080;2023-04-30T06:26:32;13.70;;;9.70;;
66342;SDS011;53144;51.524;5.080;2023-04-30T06:28:58;13.63;;;9.90;;
66342;SDS011;53144;51.524;5.080;2023-04-30T06:31:23;13.20;;;10.20;;
66342;SDS011;53144;51.524;5.080;2023-04-30T06:36:14;15.95;;;10.48;;
66342;SDS011;53144;51.524;5.080;2023-04-30T06:38:40;13.25;;;9.60;;
66342;SDS011;53144;51.524;5.080;2023-04-30T06:41:06;12.50;;;9.98;;
66342;SDS011;53144;51.524;5.080;2023-04-30T06:43:32;15.05;;;10.25;;
66342;SDS011;53144;51.524;5.080;2023-04-30T06:45:57;16.15;;;10.57;;
66342;SDS011;53144;51.524;5.080;2023-04-30T06:48:23;13.65;;;10.10;;
66342;SDS011;53144;51.524;5.080;2023-04-30T06:53:14;11.75;;;9.13;;
66342;SDS011;53144;51.524;5.080;2023-04-30T06:58:05;11.20;;;9.07;;
66342;SDS011;53144;51.524;5.080;2023-04-30T07:00:32;13.75;;;9.23;;
66342;SDS011;53144;51.524;5.080;2023-04-30T07:02:57;15.15;;;9.65;;
66342;SDS011;53144;51.524;5.080;2023-04-30T07:05:28;13.32;;;9.93;;
66342;SDS011;53144;51.524;5.080;2023-04-30T07:10:19;12.82;;;9.38;;
66342;SDS011;53144;51.524;5.080;2023-04-30T07:12:44;14.90;;;9.90;;
66342;SDS011;53144;51.524;5.080;2023-04-30T07:17:35;12.45;;;9.63;;
66342;SDS011;53144;51.524;5.080;2023-04-30T07:22:28;14.20;;;9.30;;
66342;SDS011;53144;51.524;5.080;2023-04-30T07:27:19;14.10;;;9.88;;
66342;SDS011;53144;51.524;5.080;2023-04-30T07:32:10;13.27;;;9.68;;
66342;SDS011;53144;51.524;5.080;2023-04-30T07:37:00;14.90;;;9.30;;
66342;SDS011;53144;51.524;5.080;2023-04-30T07:41:52;14.15;;;10.02;;
66342;SDS011;53144;51.524;5.080;2023-04-30T07:46:43;17.00;;;9.90;;
66342;SDS011;53144;51.524;5.080;2023-04-30T07:51:33;11.88;;;9.02;;
66342;SDS011;53144;51.524;5.080;2023-04-30T07:53:59;13.68;;;9.52;;
66342;SDS011;53144;51.524;5.080;2023-04-30T07:58:50;13.27;;;9.45;;
66342;SDS011;53144;51.524;5.080;2023-04-30T08:03:41;13.93;;;9.68;;
66342;SDS011;53144;51.524;5.080;2023-04-30T08:08:32;10.68;;;8.57;;
66342;SDS011;53144;51.524;5.080;2023-04-30T08:13:22;10.85;;;8.13;;
66342;SDS011;53144;51.524;5.080;2023-04-30T08:18:13;16.30;;;9.07;;
66342;SDS011;53144;51.524;5.080;2023-04-30T08:23:04;11.85;;;8.43;;
66342;SDS011;53144;51.524;5.080;2023-04-30T08:27:55;12.38;;;8.10;;
66342;SDS011;53144;51.524;5.080;2023-04-30T08:30:21;15.63;;;8.15;;
66342;SDS011;53144;51.524;5.080;2023-04-30T08:35:12;13.02;;;7.65;;
66342;SDS011;53144;51.524;5.080;2023-04-30T08:40:03;10.23;;;8.18;;
66342;SDS011;53144;51.524;5.080;2023-04-30T08:42:35;10.18;;;7.78;;
66342;SDS011;53144;51.524;5.080;2023-04-30T08:45:01;8.48;;;6.90;;
66342;SDS011;53144;51.524;5.080;2023-04-30T08:47:28;9.65;;;7.43;;
66342;SDS011;53144;51.524;5.080;2023-04-30T08:52:19;12.32;;;7.32;;
66342;SDS011;53144;51.524;5.080;2023-04-30T08:54:46;10.85;;;8.27;;
66342;SDS011;53144;51.524;5.080;2023-04-30T08:57:12;10.70;;;7.78;;
66342;SDS011;53144;51.524;5.080;2023-04-30T09:02:03;9.25;;;6.97;;
66342;SDS011;53144;51.524;5.080;2023-04-30T09:04:29;9.15;;;6.85;;
66342;SDS011;53144;51.524;5.080;2023-04-30T09:06:54;10.13;;;6.15;;
66342;SDS011;53144;51.524;5.080;2023-04-30T09:09:26;8.90;;;5.70;;
66342;SDS011;53144;51.524;5.080;2023-04-30T09:15:03;8.07;;;6.13;;
66342;SDS011;53144;51.524;5.080;2023-04-30T09:17:31;7.80;;;5.70;;
66342;SDS011;53144;51.524;5.080;2023-04-30T09:20:08;6.95;;;5.82;;
66342;SDS011;53144;51.524;5.080;2023-04-30T09:22:37;6.45;;;4.43;;
66342;SDS011;53144;51.524;5.080;2023-04-30T09:25:08;4.70;;;4.20;;
66342;SDS011;53144;51.524;5.080;2023-04-30T09:27:35;6.30;;;5.20;;
66342;SDS011;53144;51.524;5.080;2023-04-30T09:30:01;6.32;;;4.95;;
66342;SDS011;53144;51.524;5.080;2023-04-30T09:32:28;7.72;;;5.82;;
66342;SDS011;53144;51.524;5.080;2023-04-30T09:34:54;7.88;;;5.53;;
66342;SDS011;53144;51.524;5.080;2023-04-30T09:37:20;7.07;;;5.30;;
66342;SDS011;53144;51.524;5.080;2023-04-30T09:39:54;6.93;;;5.57;;
66342;SDS011;53144;51.524;5.080;2023-04-30T09:42:20;7.43;;;5.90;;
66342;SDS011;53144;51.524;5.080;2023-04-30T09:44:48;10.45;;;6.18;;
66342;SDS011;53144;51.524;5.080;2023-04-30T09:47:18;9.75;;;5.43;;
66342;SDS011;53144;51.524;5.080;2023-04-30T09:49:48;8.15;;;6.72;;
66342;SDS011;53144;51.524;5.080;2023-04-30T09:52:18;7.20;;;6.05;;
66342;SDS011;53144;51.524;5.080;2023-04-30T09:54:44;6.55;;;5.30;;
66342;SDS011;53144;51.524;5.080;2023-04-30T09:57:12;6.00;;;5.10;;
66342;SDS011;53144;51.524;5.080;2023-04-30T09:59:42;6.63;;;5.45;;
66342;SDS011;53144;51.524;5.080;2023-04-30T10:02:10;6.15;;;4.78;;
66342;SDS011;53144;51.524;5.080;2023-04-30T10:04:40;9.80;;;5.22;;
66342;SDS011;53144;51.524;5.080;2023-04-30T10:07:11;6.40;;;4.78;;
66342;SDS011;53144;51.524;5.080;2023-04-30T10:09:49;6.43;;;4.90;;
66342;SDS011;53144;51.524;5.080;2023-04-30T10:12:45;5.10;;;4.60;;
66342;SDS011;53144;51.524;5.080;2023-04-30T10:15:14;6.43;;;5.03;;
66342;SDS011;53144;51.524;5.080;2023-04-30T10:17:46;5.32;;;4.65;;
66342;SDS011;53144;51.524;5.080;2023-04-30T10:20:17;6.22;;;4.38;;
66342;SDS011;53144;51.524;5.080;2023-04-30T10:22:45;5.07;;;4.38;;
66342;SDS011;53144;51.524;5.080;2023-04-30T10:25:12;10.25;;;4.63;;
66342;SDS011;53144;51.524;5.080;2023-04-30T10:27:38;6.40;;;4.75;;
66342;SDS011;53144;51.524;5.080;2023-04-30T10:30:04;5.00;;;4.50;;
66342;SDS011;53144;51.524;5.080;2023-04-30T10:32:42;6.03;;;5.22;;
66342;SDS011;53144;51.524;5.080;2023-04-30T10:35:18;6.20;;;4.47;;
66342;SDS011;53144;51.524;5.080;2023-04-30T10:37:52;5.80;;;5.05;;
66342;SDS011;53144;51.524;5.080;2023-04-30T10:40:21;6.80;;;5.28;;
66342;SDS011;53144;51.524;5.080;2023-04-30T10:42:52;7.38;;;4.40;;
66342;SDS011;53144;51.524;5.080;2023-04-30T10:45:19;6.70;;;4.35;;
66342;SDS011;53144;51.524;5.080;2023-04-30T10:48:00;5.20;;;4.20;;
66342;SDS011;53144;51.524;5.080;2023-04-30T10:50:27;6.28;;;4.00;;
66342;SDS011;53144;51.524;5.080;2023-04-30T10:53:03;4.82;;;3.28;;
66342;SDS011;53144;51.524;5.080;2023-04-30T10:55:29;6.32;;;4.63;;
66342;SDS011;53144;51.524;5.080;2023-04-30T10:57:58;8.65;;;5.30;;
66342;SDS011;53144;51.524;5.080;2023-04-30T11:00:25;5.18;;;4.47;;
66342;SDS011;53144;51.524;5.080;2023-04-30T11:02:55;5.75;;;5.20;;
66342;SDS011;53144;51.524;5.080;2023-04-30T11:05:37;4.80;;;4.30;;
66342;SDS011;53144;51.524;5.080;2023-04-30T11:08:04;8.23;;;4.70;;
66342;SDS011;53144;51.524;5.080;2023-04-30T11:10:33;6.38;;;4.93;;
66342;SDS011;53144;51.524;5.080;2023-04-30T11:13:05;6.40;;;4.78;;
66342;SDS011;53144;51.524;5.080;2023-04-30T11:15:38;6.18;;;5.57;;
66342;SDS011;53144;51.524;5.080;2023-04-30T11:18:07;5.40;;;4.90;;
66342;SDS011;53144;51.524;5.080;2023-04-30T11:20:36;6.20;;;5.57;;
66342;SDS011;53144;51.524;5.080;2023-04-30T11:23:12;7.78;;;5.40;;
66342;SDS011;53144;51.524;5.080;2023-04-30T11:25:42;5.45;;;3.88;;
66342;SDS011;53144;51.524;5.080;2023-04-30T11:28:16;5.68;;;4.72;;
66342;SDS011;53144;51.524;5.080;2023-04-30T11:31:03;5.00;;;4.53;;
66342;SDS011;53144;51.524;5.080;2023-04-30T11:33:29;6.47;;;4.80;;
66342;SDS011;53144;51.524;5.080;2023-04-30T11:35:56;5.35;;;4.85;;
66342;SDS011;53144;51.524;5.080;2023-04-30T11:41:01;4.82;;;4.32;;
66342;SDS011;53144;51.524;5.080;2023-04-30T11:43:28;5.03;;;4.53;;
66342;SDS011;53144;51.524;5.080;2023-04-30T11:46:06;5.90;;;4.82;;
66342;SDS011;53144;51.524;5.080;2023-04-30T11:48:39;7.00;;;5.38;;
66342;SDS011;53144;51.524;5.080;2023-04-30T11:51:22;6.68;;;4.93;;
66342;SDS011;53144;51.524;5.080;2023-04-30T11:53:49;5.88;;;4.43;;
66342;SDS011;53144;51.524;5.080;2023-04-30T11:56:16;4.95;;;4.43;;
66342;SDS011;53144;51.524;5.080;2023-04-30T11:58:45;6.57;;;5.07;;
66342;SDS011;53144;51.524;5.080;2023-04-30T12:01:10;5.88;;;5.28;;
66342;SDS011;53144;51.524;5.080;2023-04-30T12:03:43;5.85;;;4.90;;
66342;SDS011;53144;51.524;5.080;2023-04-30T12:06:10;4.72;;;4.03;;
66342;SDS011;53144;51.524;5.080;2023-04-30T12:08:36;4.45;;;4.03;;
66342;SDS011;53144;51.524;5.080;2023-04-30T12:11:02;5.57;;;4.43;;
66342;SDS011;53144;51.524;5.080;2023-04-30T12:13:29;4.68;;;3.78;;
66342;SDS011;53144;51.524;5.080;2023-04-30T12:15:56;4.57;;;4.18;;
66342;SDS011;53144;51.524;5.080;2023-04-30T12:18:23;7.93;;;4.40;;
66342;SDS011;53144;51.524;5.080;2023-04-30T12:20:48;5.78;;;4.80;;
66342;SDS011;53144;51.524;5.080;2023-04-30T12:23:14;4.82;;;4.32;;
66342;SDS011;53144;51.524;5.080;2023-04-30T12:25:40;4.90;;;3.95;;
66342;SDS011;53144;51.524;5.080;2023-04-30T12:28:09;4.68;;;4.28;;
66342;SDS011;53144;51.524;5.080;2023-04-30T12:30:35;4.75;;;4.13;;
66342;SDS011;53144;51.524;5.080;2023-04-30T12:33:01;4.90;;;4.40;;
66342;SDS011;53144;51.524;5.080;2023-04-30T12:35:28;5.28;;;4.40;;
66342;SDS011;53144;51.524;5.080;2023-04-30T12:38:04;5.22;;;4.72;;
66342;SDS011;53144;51.524;5.080;2023-04-30T12:40:31;4.50;;;4.10;;
66342;SDS011;53144;51.524;5.080;2023-04-30T12:43:00;6.38;;;3.95;;
66342;SDS011;53144;51.524;5.080;2023-04-30T12:48:18;3.40;;;3.10;;
66342;SDS011;53144;51.524;5.080;2023-04-30T12:50:57;3.50;;;3.20;;
66342;SDS011;53144;51.524;5.080;2023-04-30T12:53:24;3.50;;;3.20;;
66342;SDS011;53144;51.524;5.080;2023-04-30T12:58:33;4.22;;;3.35;;
66342;SDS011;53144;51.524;5.080;2023-04-30T13:00:59;3.78;;;2.95;;
66342;SDS011;53144;51.524;5.080;2023-04-30T13:03:25;2.80;;;2.60;;
66342;SDS011;53144;51.524;5.080;2023-04-30T13:05:50;3.50;;;3.20;;
66342;SDS011;53144;51.524;5.080;2023-04-30T13:08:16;4.97;;;3.00;;
66342;SDS011;53144;51.524;5.080;2023-04-30T13:10:46;3.58;;;3.15;;
66342;SDS011;53144;51.524;5.080;2023-04-30T13:13:13;4.75;;;3.20;;
66342;SDS011;53144;51.524;5.080;2023-04-30T13:15:39;3.50;;;3.20;;
66342;SDS011;53144;51.524;5.080;2023-04-30T13:18:06;3.97;;;3.05;;
66342;SDS011;53144;51.524;5.080;2023-04-30T13:20:36;2.92;;;2.63;;
66342;SDS011;53144;51.524;5.080;2023-04-30T13:23:02;7.22;;;2.67;;
66342;SDS011;53144;51.524;5.080;2023-04-30T13:25:28;3.40;;;2.60;;
66342;SDS011;53144;51.524;5.080;2023-04-30T13:27:53;3.85;;;3.20;;
66342;SDS011;53144;51.524;5.080;2023-04-30T13:30:19;3.00;;;2.80;;
66342;SDS011;53144;51.524;5.080;2023-04-30T13:32:44;3.25;;;2.95;;
66342;SDS011;53144;51.524;5.080;2023-04-30T13:35:10;3.03;;;2.72;;
66342;SDS011;53144;51.524;5.080;2023-04-30T13:37:36;4.68;;;3.38;;
66342;SDS011;53144;51.524;5.080;2023-04-30T13:40:02;3.45;;;2.72;;
66342;SDS011;53144;51.524;5.080;2023-04-30T13:42:29;3.80;;;2.75;;
66342;SDS011;53144;51.524;5.080;2023-04-30T13:44:55;3.15;;;2.85;;
66342;SDS011;53144;51.524;5.080;2023-04-30T13:47:20;3.53;;;3.20;;
66342;SDS011;53144;51.524;5.080;2023-04-30T13:49:46;3.42;;;2.80;;
66342;SDS011;53144;51.524;5.080;2023-04-30T13:52:11;3.08;;;2.60;;
66342;SDS011;53144;51.524;5.080;2023-04-30T13:54:37;3.00;;;2.70;;
66342;SDS011;53144;51.524;5.080;2023-04-30T13:57:02;3.10;;;2.58;;
66342;SDS011;53144;51.524;5.080;2023-04-30T13:59:28;2.90;;;2.50;;
66342;SDS011;53144;51.524;5.080;2023-04-30T14:01:54;2.80;;;2.60;;
66342;SDS011;53144;51.524;5.080;2023-04-30T14:04:19;5.20;;;2.67;;
66342;SDS011;53144;51.524;5.080;2023-04-30T14:06:44;4.15;;;2.60;;
66342;SDS011;53144;51.524;5.080;2023-04-30T14:09:11;3.45;;;2.63;;
66342;SDS011;53144;51.524;5.080;2023-04-30T14:11:37;2.60;;;2.40;;
66342;SDS011;53144;51.524;5.080;2023-04-30T14:14:04;2.47;;;2.28;;
66342;SDS011;53144;51.524;5.080;2023-04-30T14:16:30;2.53;;;2.33;;
66342;SDS011;53144;51.524;5.080;2023-04-30T14:18:55;2.85;;;2.42;;
66342;SDS011;53144;51.524;5.080;2023-04-30T14:21:21;3.33;;;2.45;;
66342;SDS011;53144;51.524;5.080;2023-04-30T14:23:46;2.58;;;2.38;;
66342;SDS011;53144;51.524;5.080;2023-04-30T14:26:12;2.60;;;2.40;;
66342;SDS011;53144;51.524;5.080;2023-04-30T14:28:38;2.65;;;2.28;;
66342;SDS011;53144;51.524;5.080;2023-04-30T14:31:03;3.78;;;2.35;;
66342;SDS011;53144;51.524;5.080;2023-04-30T14:33:32;2.65;;;2.22;;
66342;SDS011;53144;51.524;5.080;2023-04-30T14:35:57;4.00;;;2.35;;
66342;SDS011;53144;51.524;5.080;2023-04-30T14:38:26;2.38;;;2.17;;
66342;SDS011;53144;51.524;5.080;2023-04-30T14:40:51;2.60;;;2.40;;
66342;SDS011;53144;51.524;5.080;2023-04-30T14:43:17;2.72;;;2.20;;
66342;SDS011;53144;51.524;5.080;2023-04-30T14:45:43;2.60;;;2.22;;
66342;SDS011;53144;51.524;5.080;2023-04-30T14:48:10;2.80;;;2.10;;
66342;SDS011;53144;51.524;5.080;2023-04-30T14:50:35;2.95;;;2.50;;
66342;SDS011;53144;51.524;5.080;2023-04-30T14:53:01;2.45;;;2.25;;
66342;SDS011;53144;51.524;5.080;2023-04-30T14:55:27;3.47;;;2.28;;
66342;SDS011;53144;51.524;5.080;2023-04-30T14:57:53;3.92;;;2.17;;
66342;SDS011;53144;51.524;5.080;2023-04-30T15:00:19;2.55;;;2.33;;
66342;SDS011;53144;51.524;5.080;2023-04-30T15:02:44;3.50;;;2.40;;
66342;SDS011;53144;51.524;5.080;2023-04-30T15:05:10;3.13;;;2.35;;
66342;SDS011;53144;51.524;5.080;2023-04-30T15:07:36;2.97;;;2.60;;
66342;SDS011;53144;51.524;5.080;2023-04-30T15:10:02;3.47;;;2.45;;
66342;SDS011;53144;51.524;5.080;2023-04-30T15:12:27;6.10;;;2.38;;
66342;SDS011;53144;51.524;5.080;2023-04-30T15:14:56;3.80;;;2.58;;
66342;SDS011;53144;51.524;5.080;2023-04-30T15:17:22;2.45;;;2.25;;
66342;SDS011;53144;51.524;5.080;2023-04-30T15:19:50;2.58;;;2.38;;
66342;SDS011;53144;51.524;5.080;2023-04-30T15:22:15;3.25;;;2.50;;
66342;SDS011;53144;51.524;5.080;2023-04-30T15:24:41;2.85;;;2.50;;
66342;SDS011;53144;51.524;5.080;2023-04-30T15:27:09;2.83;;;2.50;;
66342;SDS011;53144;51.524;5.080;2023-04-30T15:29:35;2.55;;;2.35;;
66342;SDS011;53144;51.524;5.080;2023-04-30T15:32:01;2.60;;;2.40;;
66342;SDS011;53144;51.524;5.080;2023-04-30T15:34:26;3.13;;;2.38;;
66342;SDS011;53144;51.524;5.080;2023-04-30T15:36:52;2.38;;;2.15;;
66342;SDS011;53144;51.524;5.080;2023-04-30T15:39:18;2.30;;;2.10;;
66342;SDS011;53144;51.524;5.080;2023-04-30T15:41:43;2.70;;;2.50;;
66342;SDS011;53144;51.524;5.080;2023-04-30T15:44:09;2.40;;;2.13;;
66342;SDS011;53144;51.524;5.080;2023-04-30T15:46:35;3.58;;;2.08;;
66342;SDS011;53144;51.524;5.080;2023-04-30T15:49:00;3.42;;;2.05;;
66342;SDS011;53144;51.524;5.080;2023-04-30T15:51:25;2.33;;;2.13;;
66342;SDS011;53144;51.524;5.080;2023-04-30T15:53:53;2.38;;;2.20;;
66342;SDS011;53144;51.524;5.080;2023-04-30T15:56:18;4.25;;;2.42;;
66342;SDS011;53144;51.524;5.080;2023-04-30T15:58:46;2.72;;;2.40;;
66342;SDS011;53144;51.524;5.080;2023-04-30T16:01:11;2.92;;;2.45;;
66342;SDS011;53144;51.524;5.080;2023-04-30T16:03:37;3.67;;;2.42;;
66342;SDS011;53144;51.524;5.080;2023-04-30T16:06:02;3.50;;;2.58;;
66342;SDS011;53144;51.524;5.080;2023-04-30T16:08:28;2.67;;;2.40;;
66342;SDS011;53144;51.524;5.080;2023-04-30T16:10:53;3.60;;;2.20;;
66342;SDS011;53144;51.524;5.080;2023-04-30T16:13:19;4.25;;;2.42;;
66342;SDS011;53144;51.524;5.080;2023-04-30T16:15:44;2.50;;;2.30;;
66342;SDS011;53144;51.524;5.080;2023-04-30T16:18:10;2.63;;;2.25;;
66342;SDS011;53144;51.524;5.080;2023-04-30T16:20:35;3.35;;;2.55;;
66342;SDS011;53144;51.524;5.080;2023-04-30T16:23:02;2.70;;;2.50;;
66342;SDS011;53144;51.524;5.080;2023-04-30T16:25:29;3.65;;;2.50;;
66342;SDS011;53144;51.524;5.080;2023-04-30T16:27:54;4.03;;;2.30;;
66342;SDS011;53144;51.524;5.080;2023-04-30T16:30:20;4.18;;;2.70;;
66342;SDS011;53144;51.524;5.080;2023-04-30T16:32:46;3.75;;;2.22;;
66342;SDS011;53144;51.524;5.080;2023-04-30T16:35:11;3.17;;;2.70;;
66342;SDS011;53144;51.524;5.080;2023-04-30T16:37:37;5.20;;;2.80;;
66342;SDS011;53144;51.524;5.080;2023-04-30T16:40:02;3.05;;;2.33;;
66342;SDS011;53144;51.524;5.080;2023-04-30T16:42:30;2.22;;;1.95;;